Ana Sayfa
METAR-TAF:

METAR-TAF

Havaalanları :

Adak, Alaska, Amerika Birleşik Devletleri

Enlem: 51-52-40N, Boylam: 176-38-45W, yükseklik: 6 m

Güncel hava durumu gözlemi

Rapor saat 12:15 UTC de 49 dakika önce yapıldı.
Rüzgar batı/güneybatıdan 4 kt
Sıcaklık -1°C
Nem 86%
Basınç 1037 hPa
Görüş mesafesi: 9.7 km
2800 ft yükseklikte parçalı bulutlu
3600 ft yükseklikte parçalı çok bulutlu
8500 ft yükseklikte çok bulutlu
hafif kar, Pus

METAR: PADK 281215Z AUTO 25004KT 6SM -SN BR SCT028 BKN036 OVC085 M01/M03 A3063 RMK AO2 P0000 FZRANO $

Saat: 04:04 (13:04 UTC)


TAF: eksik

4.000'den fazla havaalanı için hava durumu gözlemleri ve tahminleri (METAR ve TAF raporları).

Kullanılabilir istasyonlar harita üzerinde sarı ve kırmızı noktalarla gösterilir.

İstasyonun adını görmek için fareyi noktanın üzerinde gezdirin.

Sonrasında hava gözlem ve tahminlerini görmek için tıklayın.

Haritayı değiştirmek için: yaklaştırmak için siyah artı işaretli yeşil düğmeye ve uzaklaştırmak için de eksi işaretli düğmeye hızla tıklayın; bitişik haritalar için yeşil okları kullanın.


METAR-TAF: